Filia Ariea — PIET — position and weather

sailwx.info

Track history (hours):
 
Tides and Currents Weather Stations Pressure Air Temp Water Temp Dewpoint Dewpoint Depression Visibility Wind Speed Wind Dir Waves Ship Positions

Filia Ariea

Last reported at 2014-Jul-22 07:27 UTC. Time now 2014-Jul-22 23:40 UTC.
Position N 50°35' E 000°17'.

Length 90 m; draft 3.4 m.

Type: Cargo ship. MMSI: 244662000.

Date/timePositionNaut miles runAvg speedWind from/ knotsBaromVisibWave heightAir tempDewpointWater temp
2014-Jul-22 07:27N 50°35' E 000°17'1612.0
2014-Jul-22 06:04N 50°42' E 000°41'612.1
2014-Jul-22 05:33N 50°45' E 000°49'1312.6
2014-Jul-22 04:33N 50°52' E 001°05'1313.5
2014-Jul-22 03:34N 51°01' E 001°22'1515.0
2014-Jul-22 02:34N 51°10' E 001°40'1413.8
2014-Jul-22 01:33N 51°22' E 001°53'1312.7
2014-Jul-22 00:33N 51°32' E 002°06'1212.0
2014-Jul-21 23:33N 51°41' E 002°18'1111.4
2014-Jul-21 22:34N 51°49' E 002°30'12712.4
2014-Jul-21 12:17N 53°29' E 004°40'811.5
2014-Jul-21 11:33N 53°32' E 004°54'1312.2
2014-Jul-21 10:30N 53°36' E 005°14'1213.1
2014-Jul-21 09:33N 53°40' E 005°34'1513.6
2014-Jul-21 08:27N 53°45' E 005°58'1513.5
2014-Jul-21 07:20N 53°49' E 006°23'4612.2
2014-Jul-21 03:33N 54°01' E 007°39'1211.6
2014-Jul-21 02:33N 54°01' E 007°58'1211.5
2014-Jul-21 01:33N 54°00' E 008°18'1413.7
2014-Jul-21 00:33N 53°56' E 008°40'1414.4
2014-Jul-20 23:33N 53°52' E 009°04'4 3.5
2014-Jul-20 22:33N 53°54' E 009°09'0 0.4
2014-Jul-20 21:33N 53°54' E 009°10'0 0.0
2014-Jul-20 20:32N 53°54' E 009°10'0 0.0
2014-Jul-20 19:32N 53°54' E 009°10'0 0.0
2014-Jul-20 18:29N 53°54' E 009°10'0 0.0
2014-Jul-20 17:28N 53°54' E 009°10'0 0.0
2014-Jul-20 15:15N 53°54' E 009°10'0 0.0
2014-Jul-20 13:29N 53°54' E 009°10'0 0.0
2014-Jul-20 11:26N 53°54' E 009°10'0 0.0
2014-Jul-20 10:28N 53°54' E 009°10'0 0.0
2014-Jul-20 09:28N 53°54' E 009°10'0 0.0
2014-Jul-20 08:33N 53°54' E 009°10'0 0.0
2014-Jul-20 07:24N 53°54' E 009°10'0 0.0
2014-Jul-20 06:17N 53°54' E 009°10'0 0.0
2014-Jul-20 05:20N 53°54' E 009°10'0 0.0
2014-Jul-20 04:31N 53°54' E 009°10'0 0.0
2014-Jul-20 03:28N 53°54' E 009°10'0 0.0
2014-Jul-20 02:31N 53°54' E 009°10'0 0.0
2014-Jul-20 01:33N 53°54' E 009°10'0 0.0
2014-Jul-20 00:33N 53°54' E 009°10'1 1.1
2014-Jul-19 23:29N 53°55' E 009°11'0 0.0
2014-Jul-19 21:33N 53°55' E 009°11'0 0.0
2014-Jul-19 20:18N 53°55' E 009°11'0 0.0
2014-Jul-19 18:33N 53°55' E 009°11'6 5.4
2014-Jul-19 17:27N 53°60' E 009°17'49 6.0
2014-Jul-19 09:10N 54°31' E 010°23'812.2
2014-Jul-19 08:30N 54°33' E 010°36'1212.2
2014-Jul-19 07:33N 54°33' E 010°56'1312.8
2014-Jul-19 06:33N 54°32' E 011°18'1212.4
2014-Jul-19 05:33N 54°29' E 011°39'1312.6
2014-Jul-19 04:33N 54°27' E 012°00'1110.8
2014-Jul-19 03:33N 54°35' E 012°13'1212.2
2014-Jul-19 02:33N 54°42' E 012°30'1312.7
2014-Jul-19 01:33N 54°49' E 012°48'1312.8
2014-Jul-19 00:33N 54°53' E 013°09'1312.8
2014-Jul-18 23:33N 54°58' E 013°30'1312.9
2014-Jul-18 22:33N 55°03' E 013°51'1312.9
2014-Jul-18 21:33N 55°09' E 014°11'1313.0
2014-Jul-18 20:33N 55°19' E 014°26'1312.7
2014-Jul-18 19:33N 55°28' E 014°42'1312.5
2014-Jul-18 18:33N 55°34' E 015°01'1312.8
2014-Jul-18 17:33N 55°41' E 015°21'1312.7
2014-Jul-18 16:33N 55°47' E 015°40'1313.0
2014-Jul-18 15:31N 55°54' E 015°60'1212.9
2014-Jul-18 14:33N 56°01' E 016°19'1312.7
2014-Jul-18 13:33N 56°08' E 016°38'6912.6
2014-Jul-18 08:07N 56°49' E 018°17'912.6
2014-Jul-18 07:26N 56°55' E 018°29'20112.6
2014-Jul-17 15:32N 59°19' E 022°54'1212.6
2014-Jul-17 14:33N 59°22' E 023°17'1312.5
2014-Jul-17 13:31N 59°25' E 023°42'1212.1
2014-Jul-17 12:33N 59°28' E 024°04'322 8.5
2014-Jul-15 22:33N 55°59' E 016°28'1812.6
2014-Jul-15 21:08N 55°49' E 016°00'812.9
2014-Jul-15 20:33N 55°45' E 015°49'1312.8
2014-Jul-15 19:33N 55°39' E 015°29'1312.7
2014-Jul-15 18:33N 55°33' E 015°09'1312.7
2014-Jul-15 17:33N 55°26' E 014°50'1312.8
2014-Jul-15 16:33N 55°19' E 014°32'1212.2
2014-Jul-15 15:33N 55°11' E 014°15'1212.5
2014-Jul-15 14:34N 55°11' E 013°53'1312.9
2014-Jul-15 13:34N 55°13' E 013°31'1313.0
2014-Jul-15 12:33N 55°14' E 013°08'1313.1
2014-Jul-15 11:34N 55°17' E 012°45'1110.6
2014-Jul-15 10:34N 55°27' E 012°41'1312.7
2014-Jul-15 09:34N 55°40' E 012°41'1312.6
2014-Jul-15 08:34N 55°52' E 012°39'1212.0
2014-Jul-15 07:34N 56°04' E 012°37'1312.6
2014-Jul-15 06:33N 56°15' E 012°25'1312.9
2014-Jul-15 05:33N 56°26' E 012°15'1313.1
2014-Jul-15 04:32N 56°39' E 012°05'1312.8
2014-Jul-15 03:33N 56°49' E 011°52'1313.0
2014-Jul-15 02:33N 57°00' E 011°40'1413.1
2014-Jul-15 01:29N 57°12' E 011°25'1212.7
2014-Jul-15 00:33N 57°22' E 011°14'1212.2
2014-Jul-14 23:34N 57°30' E 010°58'1212.0
2014-Jul-14 22:33N 57°40' E 010°44'5 5.3
2014-Jul-14 21:33N 57°43' E 010°36'0 0.0
2014-Jul-14 20:29N 57°43' E 010°36'0 0.0
2014-Jul-14 19:32N 57°43' E 010°36'0 0.4
2014-Jul-14 18:19N 57°43' E 010°35'0 0.0
2014-Jul-14 16:33N 57°43' E 010°35'0 0.0
2014-Jul-14 14:32N 57°43' E 010°35'0 0.0
2014-Jul-14 13:20N 57°43' E 010°35'0 0.0
2014-Jul-14 12:31N 57°43' E 010°35'0 0.0
2014-Jul-14 11:28N 57°43' E 010°35'0 0.0
2014-Jul-14 10:14N 57°43' E 010°35'0 0.0
2014-Jul-14 09:33N 57°43' E 010°35'0 0.0
2014-Jul-14 08:14N 57°43' E 010°35'0 0.0
2014-Jul-14 07:32N 57°43' E 010°35'0 0.0
2014-Jul-14 06:26N 57°43' E 010°35'0 0.0
2014-Jul-14 05:33N 57°43' E 010°35'4 4.2
2014-Jul-14 04:33N 57°46' E 010°41'1111.2
2014-Jul-14 03:33N 57°43' E 010°21'83 3.2
2014-Jul-13 01:31N 56°54' E 008°17'0 0.0
2014-Jul-13 00:33N 56°54' E 008°17'0 0.0
2014-Jul-12 23:33N 56°54' E 008°17'0 0.0
2014-Jul-12 22:32N 56°54' E 008°17'0 0.0
2014-Jul-12 21:32N 56°54' E 008°17'2 2.0
2014-Jul-12 20:33N 56°53' E 008°13'1212.0
2014-Jul-12 19:33N 56°46' E 007°56'1312.0
2014-Jul-12 18:26N 56°36' E 007°41'4112.7
2014-Jul-12 15:13N 55°59' E 007°08'1413.1
2014-Jul-12 14:10N 55°47' E 006°57'1212.8
2014-Jul-12 13:13N 55°37' E 006°45'912.7
2014-Jul-12 12:30N 55°29' E 006°36'1412.6
2014-Jul-12 11:25N 55°17' E 006°25'3712.6
2014-Jul-12 08:30N 54°44' E 005°55'1212.7
2014-Jul-12 07:32N 54°34' E 005°45'  
Track history (hours):
 
Tides and Currents Weather Stations Pressure Air Temp Water Temp Dewpoint Dewpoint Depression Visibility Wind Speed Wind Dir Waves Ship Positions

Filia Ariea

Last reported at 2014-Jul-22 07:27 UTC. Time now 2014-Jul-22 23:40 UTC.
Position N 50°35' E 000°17'.

Length 90 m; draft 3.4 m.

Type: Cargo ship. MMSI: 244662000.

Date/timePositionNaut miles runAvg speedWind from/ knotsBaromVisibWave heightAir tempDewpointWater temp
2014-Jul-22 07:27N 50°35' E 000°17'1612.0
2014-Jul-22 06:04N 50°42' E 000°41'612.1
2014-Jul-22 05:33N 50°45' E 000°49'1312.6
2014-Jul-22 04:33N 50°52' E 001°05'1313.5
2014-Jul-22 03:34N 51°01' E 001°22'1515.0
2014-Jul-22 02:34N 51°10' E 001°40'1413.8
2014-Jul-22 01:33N 51°22' E 001°53'1312.7
2014-Jul-22 00:33N 51°32' E 002°06'1212.0
2014-Jul-21 23:33N 51°41' E 002°18'1111.4
2014-Jul-21 22:34N 51°49' E 002°30'12712.4
2014-Jul-21 12:17N 53°29' E 004°40'811.5
2014-Jul-21 11:33N 53°32' E 004°54'1312.2
2014-Jul-21 10:30N 53°36' E 005°14'1213.1
2014-Jul-21 09:33N 53°40' E 005°34'1513.6
2014-Jul-21 08:27N 53°45' E 005°58'1513.5
2014-Jul-21 07:20N 53°49' E 006°23'4612.2
2014-Jul-21 03:33N 54°01' E 007°39'1211.6
2014-Jul-21 02:33N 54°01' E 007°58'1211.5
2014-Jul-21 01:33N 54°00' E 008°18'1413.7
2014-Jul-21 00:33N 53°56' E 008°40'1414.4
2014-Jul-20 23:33N 53°52' E 009°04'4 3.5
2014-Jul-20 22:33N 53°54' E 009°09'0 0.4
2014-Jul-20 21:33N 53°54' E 009°10'0 0.0
2014-Jul-20 20:32N 53°54' E 009°10'0 0.0
2014-Jul-20 19:32N 53°54' E 009°10'0 0.0
2014-Jul-20 18:29N 53°54' E 009°10'0 0.0
2014-Jul-20 17:28N 53°54' E 009°10'0 0.0
2014-Jul-20 15:15N 53°54' E 009°10'0 0.0
2014-Jul-20 13:29N 53°54' E 009°10'0 0.0
2014-Jul-20 11:26N 53°54' E 009°10'0 0.0
2014-Jul-20 10:28N 53°54' E 009°10'0 0.0
2014-Jul-20 09:28N 53°54' E 009°10'0 0.0
2014-Jul-20 08:33N 53°54' E 009°10'0 0.0
2014-Jul-20 07:24N 53°54' E 009°10'0 0.0
2014-Jul-20 06:17N 53°54' E 009°10'0 0.0
2014-Jul-20 05:20N 53°54' E 009°10'0 0.0
2014-Jul-20 04:31N 53°54' E 009°10'0 0.0
2014-Jul-20 03:28N 53°54' E 009°10'0 0.0
2014-Jul-20 02:31N 53°54' E 009°10'0 0.0
2014-Jul-20 01:33N 53°54' E 009°10'0 0.0
2014-Jul-20 00:33N 53°54' E 009°10'1 1.1
2014-Jul-19 23:29N 53°55' E 009°11'0 0.0
2014-Jul-19 21:33N 53°55' E 009°11'0 0.0
2014-Jul-19 20:18N 53°55' E 009°11'0 0.0
2014-Jul-19 18:33N 53°55' E 009°11'6 5.4
2014-Jul-19 17:27N 53°60' E 009°17'49 6.0
2014-Jul-19 09:10N 54°31' E 010°23'812.2
2014-Jul-19 08:30N 54°33' E 010°36'1212.2
2014-Jul-19 07:33N 54°33' E 010°56'1312.8
2014-Jul-19 06:33N 54°32' E 011°18'1212.4
2014-Jul-19 05:33N 54°29' E 011°39'1312.6
2014-Jul-19 04:33N 54°27' E 012°00'1110.8
2014-Jul-19 03:33N 54°35' E 012°13'1212.2
2014-Jul-19 02:33N 54°42' E 012°30'1312.7
2014-Jul-19 01:33N 54°49' E 012°48'1312.8
2014-Jul-19 00:33N 54°53' E 013°09'1312.8
2014-Jul-18 23:33N 54°58' E 013°30'1312.9
2014-Jul-18 22:33N 55°03' E 013°51'1312.9
2014-Jul-18 21:33N 55°09' E 014°11'1313.0
2014-Jul-18 20:33N 55°19' E 014°26'1312.7
2014-Jul-18 19:33N 55°28' E 014°42'1312.5
2014-Jul-18 18:33N 55°34' E 015°01'1312.8
2014-Jul-18 17:33N 55°41' E 015°21'1312.7
2014-Jul-18 16:33N 55°47' E 015°40'1313.0
2014-Jul-18 15:31N 55°54' E 015°60'1212.9
2014-Jul-18 14:33N 56°01' E 016°19'1312.7
2014-Jul-18 13:33N 56°08' E 016°38'6912.6
2014-Jul-18 08:07N 56°49' E 018°17'912.6
2014-Jul-18 07:26N 56°55' E 018°29'20112.6
2014-Jul-17 15:32N 59°19' E 022°54'1212.6
2014-Jul-17 14:33N 59°22' E 023°17'1312.5
2014-Jul-17 13:31N 59°25' E 023°42'1212.1
2014-Jul-17 12:33N 59°28' E 024°04'322 8.5
2014-Jul-15 22:33N 55°59' E 016°28'1812.6
2014-Jul-15 21:08N 55°49' E 016°00'812.9
2014-Jul-15 20:33N 55°45' E 015°49'1312.8
2014-Jul-15 19:33N 55°39' E 015°29'1312.7
2014-Jul-15 18:33N 55°33' E 015°09'1312.7
2014-Jul-15 17:33N 55°26' E 014°50'1312.8
2014-Jul-15 16:33N 55°19' E 014°32'1212.2
2014-Jul-15 15:33N 55°11' E 014°15'1212.5
2014-Jul-15 14:34N 55°11' E 013°53'1312.9
2014-Jul-15 13:34N 55°13' E 013°31'1313.0
2014-Jul-15 12:33N 55°14' E 013°08'1313.1
2014-Jul-15 11:34N 55°17' E 012°45'1110.6
2014-Jul-15 10:34N 55°27' E 012°41'1312.7
2014-Jul-15 09:34N 55°40' E 012°41'1312.6
2014-Jul-15 08:34N 55°52' E 012°39'1212.0
2014-Jul-15 07:34N 56°04' E 012°37'1312.6
2014-Jul-15 06:33N 56°15' E 012°25'1312.9
2014-Jul-15 05:33N 56°26' E 012°15'1313.1
2014-Jul-15 04:32N 56°39' E 012°05'1312.8
2014-Jul-15 03:33N 56°49' E 011°52'1313.0
2014-Jul-15 02:33N 57°00' E 011°40'1413.1
2014-Jul-15 01:29N 57°12' E 011°25'1212.7
2014-Jul-15 00:33N 57°22' E 011°14'1212.2
2014-Jul-14 23:34N 57°30' E 010°58'1212.0
2014-Jul-14 22:33N 57°40' E 010°44'5 5.3
2014-Jul-14 21:33N 57°43' E 010°36'0 0.0
2014-Jul-14 20:29N 57°43' E 010°36'0 0.0
2014-Jul-14 19:32N 57°43' E 010°36'0 0.4
2014-Jul-14 18:19N 57°43' E 010°35'0 0.0
2014-Jul-14 16:33N 57°43' E 010°35'0 0.0
2014-Jul-14 14:32N 57°43' E 010°35'0 0.0
2014-Jul-14 13:20N 57°43' E 010°35'0 0.0
2014-Jul-14 12:31N 57°43' E 010°35'0 0.0
2014-Jul-14 11:28N 57°43' E 010°35'0 0.0
2014-Jul-14 10:14N 57°43' E 010°35'0 0.0
2014-Jul-14 09:33N 57°43' E 010°35'0 0.0
2014-Jul-14 08:14N 57°43' E 010°35'0 0.0
2014-Jul-14 07:32N 57°43' E 010°35'0 0.0
2014-Jul-14 06:26N 57°43' E 010°35'0 0.0
2014-Jul-14 05:33N 57°43' E 010°35'4 4.2
2014-Jul-14 04:33N 57°46' E 010°41'1111.2
2014-Jul-14 03:33N 57°43' E 010°21'83 3.2
2014-Jul-13 01:31N 56°54' E 008°17'0 0.0
2014-Jul-13 00:33N 56°54' E 008°17'0 0.0
2014-Jul-12 23:33N 56°54' E 008°17'0 0.0
2014-Jul-12 22:32N 56°54' E 008°17'0 0.0
2014-Jul-12 21:32N 56°54' E 008°17'2 2.0
2014-Jul-12 20:33N 56°53' E 008°13'1212.0
2014-Jul-12 19:33N 56°46' E 007°56'1312.0
2014-Jul-12 18:26N 56°36' E 007°41'4112.7
2014-Jul-12 15:13N 55°59' E 007°08'1413.1
2014-Jul-12 14:10N 55°47' E 006°57'1212.8
2014-Jul-12 13:13N 55°37' E 006°45'912.7
2014-Jul-12 12:30N 55°29' E 006°36'1412.6
2014-Jul-12 11:25N 55°17' E 006°25'3712.6
2014-Jul-12 08:30N 54°44' E 005°55'1212.7
2014-Jul-12 07:32N 54°34' E 005°45'  

Dump ship's entire track history